Time;durP1;ratioP1;P1;durP2;ratioP2;P2;SDS_P1;SDS_P2;PMS_P1;PMS_P2;Temp;Humidity;BMP_temperature;BMP_pressure;BME280_temperature;BME280_humidity;BME280_pressure;Samples;Min_cycle;Max_cycle;Signal;HPM_P1;HPM_P2
2022/03/08 00:02:14;;;;;;;1.60;1.50;;;;;;;-1.64;100.00;102119.81;5027125;28;20052;-81
2022/03/08 00:04:49;;;;;;;1.50;1.40;;;;;;;-1.67;100.00;102104.16;5037661;28;20049;-80
2022/03/08 00:07:22;;;;;;;1.38;1.38;;;;;;;-1.72;100.00;102118.00;5029437;28;20064;-81
2022/03/08 00:09:55;;;;;;;1.27;1.27;;;;;;;-1.82;100.00;102115.47;5037014;28;20049;-82
2022/03/08 00:12:28;;;;;;;1.50;1.40;;;;;;;-1.88;100.00;102122.28;5035741;28;20057;-80
2022/03/08 00:15:02;;;;;;;1.70;1.60;;;;;;;-1.94;100.00;102114.09;5036187;28;20050;-80
2022/03/08 00:17:36;;;;;;;1.85;1.75;;;;;;;-2.15;100.00;102114.50;5028289;28;20492;-81
2022/03/08 00:20:12;;;;;;;2.13;2.03;;;;;;;-2.12;100.00;102115.00;5034493;28;20052;-81
2022/03/08 00:22:45;;;;;;;2.22;2.13;;;;;;;-2.00;100.00;102109.38;5034538;28;20048;-81
2022/03/08 00:25:18;;;;;;;1.80;1.70;;;;;;;-1.90;100.00;102115.44;5029866;28;20376;-81
2022/03/08 00:27:52;;;;;;;2.08;1.98;;;;;;;-1.89;100.00;102109.94;5029426;28;20034;-81
2022/03/08 00:30:22;;;;;;;2.20;2.10;;;;;;;-1.87;100.00;102109.78;5031060;28;20053;-81
2022/03/08 00:32:56;;;;;;;2.00;1.90;;;;;;;-1.85;100.00;102106.94;5027102;28;20049;-81
2022/03/08 00:35:26;;;;;;;1.98;1.88;;;;;;;-1.80;100.00;102102.78;5025225;28;20045;-81
2022/03/08 00:37:59;;;;;;;2.20;2.10;;;;;;;-1.80;100.00;102100.09;5019600;28;20041;-81
2022/03/08 00:40:32;;;;;;;2.67;2.50;;;;;;;-1.85;100.00;102106.94;5028544;28;20066;-81
2022/03/08 00:43:06;;;;;;;2.15;2.05;;;;;;;-1.87;100.00;102107.09;5028805;28;20060;-81
2022/03/08 00:45:35;;;;;;;2.28;2.17;;;;;;;-1.91;100.00;102098.56;5028356;28;20049;-81
2022/03/08 00:48:04;;;;;;;2.22;2.13;;;;;;;-1.90;100.00;102099.44;5036577;28;20049;-80
2022/03/08 00:50:39;;;;;;;2.33;2.22;;;;;;;-1.88;100.00;102103.59;5030874;28;20049;-81
2022/03/08 00:53:14;;;;;;;2.20;2.10;;;;;;;-1.89;100.00;102103.78;5032864;28;20406;-81
2022/03/08 00:55:47;;;;;;;2.38;2.28;;;;;;;-1.85;100.00;102104.25;5037113;28;20489;-81
2022/03/08 00:58:21;;;;;;;2.42;2.33;;;;;;;-1.79;100.00;102104.47;5026942;28;20402;-81
2022/03/08 01:00:55;;;;;;;2.42;2.33;;;;;;;-1.78;100.00;102098.13;5030627;28;20041;-83
2022/03/08 01:03:23;;;;;;;2.45;2.35;;;;;;;-1.77;100.00;102078.47;5034347;28;20057;-81
2022/03/08 01:05:57;;;;;;;2.40;2.30;;;;;;;-1.74;100.00;102087.94;5031291;28;20049;-80
2022/03/08 01:08:30;;;;;;;2.20;2.10;;;;;;;-1.80;100.00;102088.59;5036622;28;20383;-81
2022/03/08 01:11:03;;;;;;;2.42;2.33;;;;;;;-1.86;100.00;102094.56;5025900;28;20057;-81
2022/03/08 01:13:37;;;;;;;2.20;2.10;;;;;;;-1.90;100.00;102092.25;5026683;28;20407;-80
2022/03/08 01:16:10;;;;;;;2.40;2.30;;;;;;;-1.92;100.00;102093.41;5020249;28;20050;-80
2022/03/08 01:18:43;;;;;;;2.78;2.58;;;;;;;-1.98;100.00;102086.88;5031780;28;20046;-80
2022/03/08 01:21:18;;;;;;;2.75;2.55;;;;;;;-2.02;100.00;102088.19;5021580;28;20057;-81
2022/03/08 01:23:51;;;;;;;2.38;2.28;;;;;;;-2.03;100.00;102075.88;5036924;28;20481;-81
2022/03/08 01:26:20;;;;;;;2.83;2.63;;;;;;;-2.08;100.00;102081.69;5022641;28;20474;-81
2022/03/08 01:28:49;;;;;;;2.50;2.40;;;;;;;-2.03;100.00;102083.03;5039126;28;20501;-81
2022/03/08 01:31:22;;;;;;;2.80;2.60;;;;;;;-2.06;100.00;102077.03;5034828;28;20064;-81
2022/03/08 01:33:54;;;;;;;2.65;2.47;;;;;;;-2.06;100.00;102078.84;5031849;28;20068;-81
2022/03/08 01:36:29;;;;;;;2.92;2.72;;;;;;;-2.05;100.00;102068.00;5031178;28;20398;-81
2022/03/08 01:39:03;;;;;;;2.85;2.65;;;;;;;-2.02;100.00;102071.38;5036099;28;20414;-80
2022/03/08 01:41:31;;;;;;;2.90;2.70;;;;;;;-1.98;100.00;102062.03;5027645;28;20053;-81
2022/03/08 01:44:04;;;;;;;2.97;2.78;;;;;;;-2.03;100.00;102045.69;5034392;28;20053;-81
2022/03/08 01:46:32;;;;;;;2.97;2.78;;;;;;;-1.99;100.00;102068.38;5046869;28;20053;-80
2022/03/08 01:49:07;;;;;;;2.70;2.50;;;;;;;-1.86;100.00;102060.75;5032633;28;20406;-81
2022/03/08 01:51:37;;;;;;;2.83;2.63;;;;;;;-1.88;100.00;102062.72;5050682;28;20045;-80
2022/03/08 01:54:07;;;;;;;2.45;2.35;;;;;;;-1.90;100.00;102064.75;5024197;28;20072;-81
2022/03/08 01:56:36;;;;;;;2.50;2.40;;;;;;;-1.89;100.00;102061.91;5026660;28;20482;-80
2022/03/08 01:59:05;;;;;;;2.30;2.20;;;;;;;-1.90;100.00;102054.06;5028212;28;20046;-81
2022/03/08 02:01:38;;;;;;;2.30;2.20;;;;;;;-1.88;100.00;102060.91;5014273;28;20046;-81
2022/03/08 02:04:12;;;;;;;2.30;2.20;;;;;;;-1.95;100.00;102059.03;5020365;28;20052;-80
2022/03/08 02:06:46;;;;;;;2.10;2.00;;;;;;;-2.01;100.00;102051.72;5039135;28;20050;-81
2022/03/08 02:09:20;;;;;;;2.47;2.38;;;;;;;-2.03;100.00;102046.53;5026741;28;20697;-80
2022/03/08 02:11:53;;;;;;;2.50;2.40;;;;;;;-2.10;100.00;102043.69;5027015;28;20057;-80
2022/03/08 02:14:27;;;;;;;2.38;2.28;;;;;;;-2.12;100.00;102039.50;5028133;28;20405;-81
2022/03/08 02:17:00;;;;;;;2.47;2.38;;;;;;;-2.26;100.00;102027.63;5033260;28;20038;-81
2022/03/08 02:19:34;;;;;;;2.20;2.10;;;;;;;-2.18;100.00;102040.13;5039218;28;20474;-82
2022/03/08 02:22:08;;;;;;;2.50;2.40;;;;;;;-2.13;100.00;102040.50;5030087;28;20109;-80
2022/03/08 02:24:41;;;;;;;2.97;2.78;;;;;;;-2.07;100.00;102035.34;5029727;28;20057;-81
2022/03/08 02:27:15;;;;;;;2.53;2.42;;;;;;;-2.07;100.00;102039.84;5023671;28;20049;-81
2022/03/08 02:29:50;;;;;;;2.50;2.40;;;;;;;-2.04;100.00;102036.84;5030836;28;20409;-81
2022/03/08 02:32:23;;;;;;;2.40;2.30;;;;;;;-2.08;100.00;102036.34;5036975;28;20046;-80
2022/03/08 02:34:56;;;;;;;2.53;2.42;;;;;;;-2.10;100.00;102040.16;5024298;28;20136;-81
2022/03/08 02:37:25;;;;;;;2.40;2.30;;;;;;;-2.10;100.00;102038.34;5029728;28;20053;-81
2022/03/08 02:39:58;;;;;;;2.38;2.28;;;;;;;-2.11;100.00;102043.84;5032672;28;20060;-81
2022/03/08 02:42:31;;;;;;;2.38;2.28;;;;;;;-2.14;100.00;102041.47;5030760;28;20073;-80
2022/03/08 02:45:00;;;;;;;2.10;2.00;;;;;;;-2.30;100.00;102031.59;5023582;28;20064;-81
2022/03/08 02:47:28;;;;;;;2.45;2.35;;;;;;;-2.28;100.00;102029.59;5030204;28;20400;-81
2022/03/08 02:50:01;;;;;;;2.50;2.40;;;;;;;-2.26;100.00;102044.44;5029199;28;20537;-80
2022/03/08 02:52:36;;;;;;;2.38;2.28;;;;;;;-2.37;100.00;102022.59;5024563;28;20037;-81
2022/03/08 02:55:11;;;;;;;2.78;2.58;;;;;;;-2.39;100.00;102041.38;5021886;28;20041;-80
2022/03/08 02:57:44;;;;;;;2.30;2.20;;;;;;;-2.41;100.00;102044.22;5016024;28;20057;-81
2022/03/08 03:00:19;;;;;;;2.50;2.40;;;;;;;-2.53;100.00;102024.16;5038022;28;20071;-81
2022/03/08 03:02:53;;;;;;;3.00;2.80;;;;;;;-2.47;100.00;102039.53;5030678;28;20057;-81
2022/03/08 03:05:26;;;;;;;3.05;2.85;;;;;;;-2.53;100.00;102037.50;5025623;28;20057;-81
2022/03/08 03:08:00;;;;;;;3.10;2.90;;;;;;;-2.51;100.00;102042.66;5024851;28;20050;-81
2022/03/08 03:10:34;;;;;;;3.08;2.88;;;;;;;-2.49;100.00;102040.69;5030331;28;20690;-80
2022/03/08 03:13:07;;;;;;;3.05;2.85;;;;;;;-2.56;100.00;102037.81;5026201;28;20064;-82
2022/03/08 03:15:40;;;;;;;3.03;2.83;;;;;;;-2.49;100.00;102036.19;5018744;28;20046;-81
2022/03/08 03:18:14;;;;;;;3.20;3.00;;;;;;;-2.46;100.00;102035.03;5033816;28;20500;-80
2022/03/08 03:20:47;;;;;;;3.42;3.22;;;;;;;-2.53;100.00;102036.66;5039654;28;20046;-81
2022/03/08 03:23:22;;;;;;;3.42;3.22;;;;;;;-2.69;100.00;102038.25;5031527;28;20049;-81
2022/03/08 03:25:55;;;;;;;3.28;3.08;;;;;;;-2.56;100.00;102035.16;5028172;28;20064;-81
2022/03/08 03:28:23;;;;;;;3.20;3.00;;;;;;;-2.57;100.00;102026.34;5024860;28;20045;-81
2022/03/08 03:30:56;;;;;;;3.45;3.25;;;;;;;-2.58;100.00;102035.31;5020093;28;20904;-81
2022/03/08 03:33:29;;;;;;;3.60;3.40;;;;;;;-2.56;100.00;102040.47;5020766;28;20069;-81
2022/03/08 03:36:02;;;;;;;3.22;3.03;;;;;;;-2.60;100.00;102031.97;5014520;28;20054;-81
2022/03/08 03:38:37;;;;;;;3.10;2.90;;;;;;;-2.50;100.00;102045.19;5020583;28;20046;-81
2022/03/08 03:41:05;;;;;;;2.50;2.40;;;;;;;-2.61;100.00;102035.66;5030748;28;20038;-81
2022/03/08 03:43:34;;;;;;;2.97;2.78;;;;;;;-2.62;100.00;102039.28;5025338;28;20045;-81
2022/03/08 03:46:07;;;;;;;3.25;3.05;;;;;;;-2.60;100.00;102039.94;5031018;28;20049;-80
2022/03/08 03:48:35;;;;;;;3.20;3.00;;;;;;;-2.75;100.00;102026.41;5033840;28;20041;-80
2022/03/08 03:51:08;;;;;;;3.10;2.90;;;;;;;-2.62;100.00;102036.63;5019315;28;20050;-82
2022/03/08 03:53:43;;;;;;;3.08;2.88;;;;;;;-2.73;100.00;102031.56;5029414;28;20049;-80
2022/03/08 03:56:16;;;;;;;3.55;3.35;;;;;;;-2.81;100.00;102043.00;5027608;28;20064;-81
2022/03/08 03:58:49;;;;;;;3.47;3.28;;;;;;;-2.79;100.00;102040.19;5027949;28;20045;-81
2022/03/08 04:01:22;;;;;;;3.60;3.40;;;;;;;-2.91;100.00;102047.63;5034474;28;20478;-81
2022/03/08 04:03:55;;;;;;;2.90;2.70;;;;;;;-2.83;100.00;102049.50;5029684;28;20046;-81
2022/03/08 04:06:29;;;;;;;3.00;2.80;;;;;;;-2.83;100.00;102045.00;5030597;28;20056;-80
2022/03/08 04:09:05;;;;;;;3.30;3.10;;;;;;;-2.84;100.00;102045.19;5033924;28;20417;-80
2022/03/08 04:11:38;;;;;;;3.30;3.10;;;;;;;-2.92;100.00;102044.09;5030604;28;20521;-82
2022/03/08 04:14:11;;;;;;;3.42;3.22;;;;;;;-2.91;100.00;102037.78;5038852;28;20050;-80
2022/03/08 04:16:44;;;;;;;3.13;2.92;;;;;;;-2.88;100.00;102052.63;5031119;28;20670;-80
2022/03/08 04:19:17;;;;;;;3.58;3.38;;;;;;;-2.88;100.00;102049.97;5033736;28;20056;-81
2022/03/08 04:21:50;;;;;;;3.85;3.60;;;;;;;-2.89;100.00;102045.63;5042200;28;20056;-81
2022/03/08 04:24:25;;;;;;;3.80;3.58;;;;;;;-2.92;100.00;102048.63;5030922;28;20045;-81
2022/03/08 04:26:53;;;;;;;4.20;3.90;;;;;;;-2.95;100.00;102049.75;5031236;28;20050;-81
2022/03/08 04:29:27;;;;;;;4.40;4.10;;;;;;;-2.93;100.00;102055.78;5035644;28;20387;-81
2022/03/08 04:32:00;;;;;;;3.97;3.67;;;;;;;-2.99;100.00;102055.56;5039408;28;20049;-81
2022/03/08 04:34:33;;;;;;;4.35;4.05;;;;;;;-3.02;100.00;102064.69;5042078;28;20061;-80
2022/03/08 04:37:06;;;;;;;4.75;4.45;;;;;;;-3.12;100.00;102050.63;5021767;28;20046;-81
2022/03/08 04:39:35;;;;;;;4.38;4.07;;;;;;;-3.06;100.00;102070.50;5024026;28;20053;-81
2022/03/08 04:42:08;;;;;;;4.78;4.47;;;;;;;-3.05;100.00;102072.16;5041189;28;20042;-81
2022/03/08 04:44:42;;;;;;;4.60;4.30;;;;;;;-3.11;100.00;102065.63;5032486;28;20042;-80
2022/03/08 04:47:10;;;;;;;5.22;4.82;;;;;;;-3.07;100.00;102074.97;5041323;28;20053;-81
2022/03/08 04:49:43;;;;;;;5.00;4.70;;;;;;;-3.07;100.00;102066.97;5031098;28;20041;-81
2022/03/08 04:52:16;;;;;;;6.15;5.75;;;;;;;-3.00;100.00;102080.53;5024160;28;20053;-81
2022/03/08 04:54:51;;;;;;;6.55;6.05;;;;;;;-3.01;100.00;102078.84;5023264;28;20041;-81
2022/03/08 04:57:19;;;;;;;6.88;6.38;;;;;;;-2.99;100.00;102080.34;5032073;28;20049;-81
2022/03/08 04:59:47;;;;;;;7.55;7.05;;;;;;;-2.97;100.00;102088.19;5039876;28;20737;-80
2022/03/08 05:02:20;;;;;;;8.73;8.13;;;;;;;-2.97;100.00;102091.72;5034955;28;20051;-81
2022/03/08 05:04:53;;;;;;;9.13;8.52;;;;;;;-3.04;100.00;102084.47;5025798;28;20037;-80
2022/03/08 05:07:21;;;;;;;9.85;9.15;;;;;;;-3.05;100.00;102093.44;5031435;28;20053;-80
2022/03/08 05:09:55;;;;;;;10.75;10.05;;;;;;;-3.07;100.00;102090.94;5036050;28;20057;-81
2022/03/08 05:12:29;;;;;;;11.23;10.52;;;;;;;-3.05;100.00;102096.13;5023243;28;20052;-81
2022/03/08 05:14:57;;;;;;;11.93;11.13;;;;;;;-3.13;100.00;102096.91;5032446;28;20045;-81
2022/03/08 05:17:25;;;;;;;11.85;11.05;;;;;;;-3.19;100.00;102090.38;5032101;28;20053;-81
2022/03/08 05:19:58;;;;;;;13.55;12.70;;;;;;;-3.19;100.00;102093.03;5030230;28;20065;-82
2022/03/08 05:22:31;;;;;;;14.07;13.18;;;;;;;-3.19;100.00;102102.84;5024593;28;20045;-81
2022/03/08 05:25:01;;;;;;;15.02;14.13;;;;;;;-3.18;100.00;102104.50;5026581;28;20402;-81
2022/03/08 05:27:34;;;;;;;15.52;14.63;;;;;;;-3.21;100.00;102100.31;5037454;28;20052;-81
2022/03/08 05:30:05;;;;;;;17.35;16.35;;;;;;;-3.19;100.00;102102.84;5024196;28;20081;-81
2022/03/08 05:32:38;;;;;;;16.20;15.20;;;;;;;-3.18;100.00;102096.53;5028230;28;20409;-81
2022/03/08 05:35:07;;;;;;;17.00;16.00;;;;;;;-3.20;100.00;102094.03;5028912;28;20058;-80
2022/03/08 05:37:40;;;;;;;17.08;16.08;;;;;;;-3.25;100.00;102096.28;5028586;28;20057;-81
2022/03/08 05:40:15;;;;;;;19.30;18.20;;;;;;;-3.33;100.00;102102.41;5031416;28;20060;-81
2022/03/08 05:42:43;;;;;;;18.50;17.40;;;;;;;-3.34;100.00;102108.72;5041028;28;20049;-81
2022/03/08 05:45:16;;;;;;;19.58;18.45;;;;;;;-3.32;100.00;102106.72;5031307;28;20049;-80
2022/03/08 05:47:49;;;;;;;21.52;20.33;;;;;;;-3.24;100.00;102103.31;5017432;28;20501;-81
2022/03/08 05:50:22;;;;;;;22.42;21.13;;;;;;;-3.22;100.00;102098.66;5033037;28;20052;-80
2022/03/08 05:52:56;;;;;;;24.95;23.55;;;;;;;-3.19;100.00;102101.03;5032981;28;20136;-80
2022/03/08 05:55:30;;;;;;;23.70;22.40;;;;;;;-3.17;100.00;102092.88;5033074;28;20057;-80
2022/03/08 05:58:03;;;;;;;24.35;22.95;;;;;;;-3.13;100.00;102092.41;5040949;28;20046;-81
2022/03/08 06:00:36;;;;;;;28.02;26.45;;;;;;;-3.18;100.00;102092.03;5029847;28;20470;-80
2022/03/08 06:03:09;;;;;;;26.27;24.77;;;;;;;-3.23;100.00;102086.34;5041355;28;20052;-81
2022/03/08 06:05:43;;;;;;;24.08;22.73;;;;;;;-3.26;100.00;102090.16;5023577;28;20775;-81
2022/03/08 06:08:16;;;;;;;25.63;24.23;;;;;;;-3.21;100.00;102094.19;5030849;28;20060;-81
2022/03/08 06:10:45;;;;;;;24.65;23.25;;;;;;;-3.22;100.00;102093.31;5021643;28;20398;-81
2022/03/08 06:13:18;;;;;;;25.42;24.02;;;;;;;-3.27;100.00;102093.78;5024288;28;20410;-80
2022/03/08 06:15:52;;;;;;;26.10;24.60;;;;;;;-3.21;100.00;102099.50;5027649;28;20048;-80
2022/03/08 06:18:25;;;;;;;26.73;25.23;;;;;;;-3.15;100.00;102097.06;5048308;28;20421;-81
2022/03/08 06:20:53;;;;;;;27.63;26.13;;;;;;;-3.10;100.00;102085.94;5020113;28;20056;-81
2022/03/08 06:23:26;;;;;;;26.63;25.13;;;;;;;-3.01;100.00;102095.69;5027655;28;20052;-81
2022/03/08 06:26:01;;;;;;;28.27;26.67;;;;;;;-2.92;100.00;102091.22;5034412;28;20048;-81
2022/03/08 06:28:34;;;;;;;30.15;28.45;;;;;;;-2.92;100.00;102093.91;5026432;28;20041;-80
2022/03/08 06:31:07;;;;;;;29.52;27.92;;;;;;;-2.96;100.00;102084.53;5038359;28;20042;-80
2022/03/08 06:33:40;;;;;;;30.45;28.75;;;;;;;-2.89;100.00;102096.25;5021864;28;20034;-80
2022/03/08 06:36:13;;;;;;;31.63;29.90;;;;;;;-2.83;100.00;102103.63;5029621;28;20049;-81
2022/03/08 06:38:41;;;;;;;29.88;28.23;;;;;;;-2.85;100.00;102094.94;5028944;28;20045;-80
2022/03/08 06:41:16;;;;;;;30.83;29.13;;;;;;;-2.82;100.00;102093.78;5025538;28;20041;-80
2022/03/08 06:43:44;;;;;;;31.15;29.45;;;;;;;-2.76;100.00;102094.00;5029944;28;20056;-80
2022/03/08 06:46:17;;;;;;;31.35;29.65;;;;;;;-2.64;100.00;102097.25;5021358;28;20509;-81
2022/03/08 06:48:51;;;;;;;31.05;29.35;;;;;;;-2.60;100.00;102095.94;5034173;28;20068;-80
2022/03/08 06:51:24;;;;;;;31.40;29.70;;;;;;;-2.56;100.00;102091.13;5037809;28;20481;-81
2022/03/08 06:53:57;;;;;;;31.92;30.15;;;;;;;-2.53;100.00;102087.31;5025246;28;20037;-80
2022/03/08 06:56:26;;;;;;;31.60;29.90;;;;;;;-2.53;100.00;102092.66;5029941;28;20060;-80
2022/03/08 06:58:59;;;;;;;30.60;28.90;;;;;;;-2.51;100.00;102093.31;5023710;28;20045;-80
2022/03/08 07:01:27;;;;;;;29.10;27.50;;;;;;;-2.46;100.00;102096.34;5021504;28;20041;-81
2022/03/08 07:03:55;;;;;;;30.55;28.85;;;;;;;-2.40;100.00;102093.06;5021454;28;20406;-80
2022/03/08 07:06:24;;;;;;;29.85;28.20;;;;;;;-2.37;100.00;102100.72;5028568;28;20041;-80
2022/03/08 07:08:57;;;;;;;30.00;28.33;;;;;;;-2.32;100.00;102098.44;5035419;28;20521;-80
2022/03/08 07:11:33;;;;;;;30.23;28.52;;;;;;;-2.26;100.00;102094.28;5023307;28;20042;-80
2022/03/08 07:14:06;;;;;;;29.58;27.98;;;;;;;-2.03;100.00;102093.69;5028946;28;20057;-80
2022/03/08 07:16:40;;;;;;;29.80;28.17;;;;;;;-1.85;100.00;102091.78;5021959;28;20053;-80
2022/03/08 07:19:08;;;;;;;28.95;27.35;;;;;;;-1.80;100.00;102073.41;5029810;28;20060;-80
2022/03/08 07:21:42;;;;;;;25.20;23.80;;;;;;;-1.54;100.00;102096.50;5024360;28;20049;-80
2022/03/08 07:24:15;;;;;;;26.23;24.73;;;;;;;-1.34;100.00;102102.38;5028106;28;20061;-80
2022/03/08 07:26:50;;;;;;;21.88;20.60;;;;;;;-1.28;100.00;102090.19;5029737;28;20037;-80
2022/03/08 07:29:23;;;;;;;21.42;20.23;;;;;;;-1.24;100.00;102083.53;5021468;28;20065;-80
2022/03/08 07:31:56;;;;;;;21.08;19.88;;;;;;;-1.09;100.00;102097.03;5021592;28;20068;-80
2022/03/08 07:34:24;;;;;;;19.83;18.65;;;;;;;-1.08;100.00;102077.31;5031898;28;20410;-81
2022/03/08 07:36:57;;;;;;;19.52;18.42;;;;;;;-0.91;100.00;102089.69;5046004;28;20045;-82
2022/03/08 07:39:30;;;;;;;17.38;16.35;;;;;;;-0.86;100.00;102091.84;5030166;28;20044;-80
2022/03/08 07:42:05;;;;;;;17.85;16.75;;;;;;;-0.83;100.00;102091.50;5030033;28;20037;-81
2022/03/08 07:44:39;;;;;;;17.45;16.45;;;;;;;-0.76;100.00;102091.66;5023814;28;20046;-82
2022/03/08 07:47:13;;;;;;;19.98;18.77;;;;;;;-0.80;100.00;102072.47;5035759;28;20053;-81
2022/03/08 07:49:46;;;;;;;19.13;18.02;;;;;;;-0.65;100.00;102085.13;5027211;28;20057;-83
2022/03/08 07:52:15;;;;;;;19.88;18.70;;;;;;;-0.46;100.00;102087.41;5032227;28;20478;-85
2022/03/08 07:54:48;;;;;;;17.85;16.77;;;;;;;-0.36;100.00;102096.09;5035590;28;20045;-82
2022/03/08 07:57:17;;;;;;;16.23;15.23;;;;;;;-0.39;100.00;102092.91;5032954;28;20053;-79
2022/03/08 07:59:46;;;;;;;14.77;13.88;;;;;;;-0.31;100.00;102087.53;5028089;28;20052;-81
2022/03/08 08:02:19;;;;;;;14.60;13.70;;;;;;;-0.25;100.00;102094.03;5028240;28;20053;-81
2022/03/08 08:04:52;;;;;;;14.23;13.32;;;;;;;-0.26;100.00;102087.84;5029692;28;20052;-80
2022/03/08 08:07:25;;;;;;;13.32;12.52;;;;;;;-0.24;100.00;102095.72;5028969;28;20048;-80
2022/03/08 08:09:58;;;;;;;13.60;12.75;;;;;;;-0.09;100.00;102093.97;5024274;28;20418;-80
2022/03/08 08:12:28;;;;;;;14.50;13.60;;;;;;;-0.04;100.00;102098.81;5025340;28;20278;-80
2022/03/08 08:15:01;;;;;;;13.35;12.55;;;;;;;0.02;100.00;102099.97;5034662;28;20049;-81
2022/03/08 08:17:34;;;;;;;13.60;12.75;;;;;;;0.26;100.00;102107.00;5029483;28;20057;-79
2022/03/08 08:20:09;;;;;;;13.13;12.32;;;;;;;0.22;100.00;102103.03;5032951;28;20045;-81
2022/03/08 08:22:42;;;;;;;12.48;11.68;;;;;;;0.25;100.00;102102.66;5024632;28;20061;-80
2022/03/08 08:25:11;;;;;;;12.20;11.40;;;;;;;0.33;100.00;102107.97;5023550;28;20046;-81
2022/03/08 08:27:41;;;;;;;14.15;13.25;;;;;;;0.17;100.00;102098.19;5017399;28;20891;-80
2022/03/08 08:30:10;;;;;;;12.77;11.98;;;;;;;0.30;100.00;102114.53;5015455;28;20068;-80
2022/03/08 08:32:44;;;;;;;14.50;13.60;;;;;;;0.36;100.00;102109.47;5017251;28;20049;-80
2022/03/08 08:35:17;;;;;;;13.73;12.85;;;;;;;0.49;100.00;102110.56;5011334;28;20057;-80
2022/03/08 08:37:51;;;;;;;14.10;13.20;;;;;;;0.53;100.00;102119.06;5012390;28;20053;-80
2022/03/08 08:40:24;;;;;;;17.10;16.10;;;;;;;0.70;100.00;102113.59;5014222;28;20064;-81
2022/03/08 08:42:53;;;;;;;18.23;17.13;;;;;;;0.90;100.00;102109.44;5013139;28;20045;-80
2022/03/08 08:45:26;;;;;;;19.80;18.63;;;;;;;1.07;100.00;102110.13;5015117;28;20049;-80
2022/03/08 08:47:59;;;;;;;22.13;20.83;;;;;;;1.21;100.00;102103.13;5013980;28;20049;-82
2022/03/08 08:50:33;;;;;;;17.73;16.65;;;;;;;1.21;100.00;102096.94;5010208;28;20049;-81
2022/03/08 08:53:06;;;;;;;11.75;10.95;;;;;;;1.40;100.00;102093.72;5007916;28;21210;-81
2022/03/08 08:55:36;;;;;;;8.43;7.82;;;;;;;1.39;100.00;102097.41;5012064;28;20750;-81
2022/03/08 08:58:06;;;;;;;5.97;5.57;;;;;;;1.58;100.00;102090.66;5011604;28;20064;-81
2022/03/08 09:00:39;;;;;;;5.38;4.97;;;;;;;1.49;100.00;102086.41;5009946;28;20045;-80
2022/03/08 09:03:14;;;;;;;3.63;3.42;;;;;;;1.80;100.00;102101.50;5017551;28;20060;-81
2022/03/08 09:05:43;;;;;;;2.97;2.78;;;;;;;1.90;100.00;102101.22;5014863;28;20057;-80
2022/03/08 09:08:22;;;;;;;2.58;2.47;;;;;;;1.86;100.00;102098.91;5012560;28;20061;-80
2022/03/08 09:10:56;;;;;;;2.35;2.25;;;;;;;2.00;100.00;102088.31;5011174;28;20405;-80
2022/03/08 09:13:30;;;;;;;1.73;1.63;;;;;;;2.13;100.00;102093.03;5009373;28;20053;-80
2022/03/08 09:16:04;;;;;;;1.70;1.60;;;;;;;2.33;100.00;102091.38;5014909;28;20053;-80
2022/03/08 09:18:37;;;;;;;1.63;1.52;;;;;;;2.24;100.00;102089.84;5009625;28;20069;-80
2022/03/08 09:21:11;;;;;;;1.20;1.20;;;;;;;2.44;100.00;102090.06;5011136;28;20478;-80
2022/03/08 09:23:44;;;;;;;0.93;0.93;;;;;;;2.51;100.00;102074.84;5010768;28;20045;-80
2022/03/08 09:26:17;;;;;;;1.00;1.00;;;;;;;2.60;100.00;102072.84;5012172;28;20766;-80
2022/03/08 09:28:51;;;;;;;0.98;0.98;;;;;;;2.78;100.00;102077.78;5010010;28;20064;-81
2022/03/08 09:31:25;;;;;;;0.90;0.90;;;;;;;2.70;100.00;102077.91;5008367;28;20529;-80
2022/03/08 09:33:58;;;;;;;0.80;0.80;;;;;;;2.82;100.00;102076.38;5013202;28;20050;-81
2022/03/08 09:36:31;;;;;;;0.80;0.80;;;;;;;2.77;100.00;102065.34;5013012;28;20037;-80
2022/03/08 09:38:59;;;;;;;0.60;0.60;;;;;;;2.79;100.00;102076.75;5012571;28;20054;-79
2022/03/08 09:41:32;;;;;;;0.60;0.60;;;;;;;2.86;100.00;102053.44;5014476;28;20065;-80
2022/03/08 09:44:12;;;;;;;0.60;0.60;;;;;;;3.26;100.00;102055.59;5009464;28;20470;-80
2022/03/08 09:46:45;;;;;;;0.50;0.50;;;;;;;3.16;100.00;102063.19;5007538;28;20072;-80
2022/03/08 09:49:18;;;;;;;0.50;0.50;;;;;;;3.35;100.00;102054.41;5010730;28;20076;-80
2022/03/08 09:51:52;;;;;;;0.40;0.40;;;;;;;3.17;99.95;102057.59;5006398;28;20054;-81
2022/03/08 09:54:25;;;;;;;0.40;0.40;;;;;;;3.23;99.59;102059.50;5007308;28;20053;-81
2022/03/08 09:56:58;;;;;;;0.40;0.40;;;;;;;3.36;83.61;102048.00;5007805;28;20702;-81
2022/03/08 09:59:32;;;;;;;0.40;0.40;;;;;;;3.29;100.00;102060.59;5010418;28;20068;-81
2022/03/08 10:02:06;;;;;;;0.30;0.30;;;;;;;3.30;100.00;102053.31;5007405;28;20056;-81
2022/03/08 10:04:34;;;;;;;0.30;0.30;;;;;;;3.56;92.75;102066.97;5007498;28;20083;-81
2022/03/08 10:07:09;;;;;;;0.40;0.40;;;;;;;3.58;100.00;102069.44;5010067;28;20052;-81
2022/03/08 10:09:55;;;;;;;0.30;0.30;;;;;;;3.62;100.00;102062.63;5010125;28;20056;-80
2022/03/08 10:12:28;;;;;;;0.30;0.30;;;;;;;3.61;100.00;102058.28;5005132;28;20068;-81
2022/03/08 10:18:01;;;;;;;0.50;0.50;;;;;;;3.69;100.00;102050.03;5067851;28;20413;-80
2022/03/08 10:20:35;;;;;;;0.38;0.38;;;;;;;3.78;100.00;102057.94;5061354;28;20064;-80
2022/03/08 10:23:12;;;;;;;0.40;0.40;;;;;;;3.83;100.00;102058.19;5061995;28;20574;-80
2022/03/08 10:25:45;;;;;;;0.30;0.30;;;;;;;4.07;100.00;102044.19;5070030;28;20544;-80
2022/03/08 10:28:13;;;;;;;0.30;0.30;;;;;;;4.14;100.00;102052.25;5064060;28;20044;-80
2022/03/08 10:30:53;;;;;;;0.40;0.40;;;;;;;4.10;100.00;102051.00;5060636;28;20056;-79
2022/03/08 10:33:36;;;;;;;0.40;0.40;;;;;;;4.15;100.00;102058.50;5067085;28;20071;-79
2022/03/08 10:36:13;;;;;;;0.40;0.40;;;;;;;4.24;100.00;102054.59;5064072;28;20052;-80
2022/03/08 10:39:12;;;;;;;0.30;0.30;;;;;;;4.20;100.00;102053.34;5063117;28;20056;-82
2022/03/08 10:41:51;;;;;;;0.30;0.30;;;;;;;4.36;93.04;102052.94;5055458;28;20059;-81
2022/03/08 10:44:31;;;;;;;0.30;0.30;;;;;;;4.65;85.85;102037.41;5066791;28;20048;-81
2022/03/08 10:47:08;;;;;;;0.30;0.30;;;;;;;4.62;74.63;102047.81;5067126;28;20437;-81
2022/03/08 10:49:51;;;;;;;0.30;0.30;;;;;;;4.71;80.51;102035.75;5062420;28;20048;-81
2022/03/08 10:52:29;;;;;;;0.20;0.20;;;;;;;4.53;97.11;102039.06;5071081;28;20056;-81
2022/03/08 10:55:11;;;;;;;0.35;0.35;;;;;;;4.77;90.51;102041.16;5066269;28;20044;-81
2022/03/08 10:57:49;;;;;;;0.20;0.20;;;;;;;4.63;94.11;102031.41;5063961;28;20473;-82
2022/03/08 11:00:24;;;;;;;0.30;0.30;;;;;;;4.88;82.83;102037.00;5062625;28;20068;-82
2022/03/08 11:02:59;;;;;;;0.30;0.30;;;;;;;4.82;97.08;102024.38;5066866;28;20386;-81
2022/03/08 11:05:35;;;;;;;0.30;0.30;;;;;;;4.95;83.00;102023.53;5064475;28;20049;-81
2022/03/08 11:08:10;;;;;;;0.28;0.28;;;;;;;5.00;87.53;102026.44;5066474;28;20543;-81
2022/03/08 11:10:44;;;;;;;0.30;0.30;;;;;;;5.06;76.73;102040.97;5061865;28;20067;-81
2022/03/08 11:13:19;;;;;;;0.30;0.30;;;;;;;5.30;93.47;102033.22;5060182;28;20052;-80
2022/03/08 11:15:47;;;;;;;0.30;0.30;;;;;;;5.23;94.25;102028.69;5060168;28;20051;-81
2022/03/08 11:18:17;;;;;;;0.30;0.30;;;;;;;5.04;84.00;102021.44;5057670;28;20063;-81
2022/03/08 11:20:56;;;;;;;0.20;0.20;;;;;;;5.21;83.77;102022.66;5063066;28;20510;-81
2022/03/08 11:23:30;;;;;;;0.30;0.30;;;;;;;5.34;77.52;102004.78;5067458;28;20057;-81
2022/03/08 11:25:59;;;;;;;0.30;0.30;;;;;;;5.32;82.67;102007.69;5059478;28;20051;-81
2022/03/08 11:28:33;;;;;;;0.25;0.25;;;;;;;5.60;80.90;102011.97;5020729;28;20048;-81
2022/03/08 11:31:06;;;;;;;0.30;0.30;;;;;;;5.59;77.54;102008.44;5043000;28;20103;-81
2022/03/08 11:33:47;;;;;;;0.30;0.30;;;;;;;5.60;74.77;102001.16;5045578;28;20052;-81
2022/03/08 11:36:28;;;;;;;0.20;0.20;;;;;;;5.44;83.17;102006.00;5045081;28;20051;-81
2022/03/08 11:39:21;;;;;;;0.30;0.30;;;;;;;5.45;84.90;102007.66;5053509;28;20049;-81
2022/03/08 11:41:56;;;;;;;0.20;0.20;;;;;;;5.35;92.68;102012.66;5046070;28;20057;-81
2022/03/08 11:44:32;;;;;;;0.20;0.20;;;;;;;5.34;99.96;102011.00;5050488;28;20044;-81